createdAt,value
2022-12-26T05:00:32.049Z,12.39
2022-12-26T05:01:32.061Z,12.37
2022-12-26T05:02:32.237Z,12.21
2022-12-26T05:03:32.053Z,12.23
2022-12-26T05:04:31.977Z,12.29
2022-12-26T05:05:31.947Z,12.29
2022-12-26T05:06:31.926Z,12.23
2022-12-26T05:07:31.915Z,12.23
2022-12-26T05:08:31.961Z,12.31
2022-12-26T05:09:31.891Z,12.29
2022-12-26T05:10:31.886Z,12.21
2022-12-26T05:11:36.904Z,12.23
2022-12-26T05:12:31.866Z,12.23
2022-12-26T05:13:31.872Z,12.28
2022-12-26T05:14:31.834Z,12.23
2022-12-26T05:15:31.879Z,12.31
2022-12-26T05:16:31.871Z,12.24
2022-12-26T05:17:31.804Z,12.27
2022-12-26T05:18:31.790Z,12.21
2022-12-26T05:19:31.804Z,12.21
2022-12-26T05:20:31.766Z,12.28
2022-12-26T05:21:32.763Z,12.21
2022-12-26T05:22:36.769Z,12.28
2022-12-26T05:23:31.740Z,12.23
2022-12-26T05:24:31.735Z,12.24
2022-12-26T05:25:31.711Z,12.24
2022-12-26T05:26:31.718Z,12.31
2022-12-26T05:27:31.689Z,12.24
2022-12-26T05:28:31.691Z,12.37
2022-12-26T05:29:31.679Z,12.21
2022-12-26T05:30:31.670Z,12.31
2022-12-26T05:31:36.188Z,12.37
2022-12-26T05:32:31.661Z,12.32
2022-12-26T05:33:36.654Z,12.39
2022-12-26T05:34:31.613Z,12.38
2022-12-26T05:35:31.617Z,12.39
2022-12-26T05:36:31.591Z,12.34
2022-12-26T05:37:31.739Z,12.35
2022-12-26T05:38:31.579Z,12.49
2022-12-26T05:39:31.552Z,12.39
2022-12-26T05:40:31.551Z,12.46
2022-12-26T05:41:31.533Z,12.45
2022-12-26T05:42:31.521Z,12.47
2022-12-26T05:43:31.504Z,12.42
2022-12-26T05:44:36.519Z,12.45
2022-12-26T05:45:31.513Z,12.45
2022-12-26T05:46:31.610Z,12.42
2022-12-26T05:47:31.468Z,12.46
2022-12-26T05:48:31.482Z,12.42
2022-12-26T05:49:31.446Z,12.42
2022-12-26T05:50:31.450Z,12.45
2022-12-26T05:51:31.413Z,12.49
2022-12-26T05:52:31.415Z,12.56
2022-12-26T05:53:31.437Z,12.52
2022-12-26T05:54:31.388Z,12.50
2022-12-26T05:55:36.452Z,12.52
2022-12-26T05:56:31.374Z,12.49
2022-12-26T05:57:31.368Z,12.56
2022-12-26T05:58:31.342Z,12.50
2022-12-26T05:59:31.326Z,12.53
2022-12-26T06:00:31.444Z,12.56
2022-12-26T06:01:31.504Z,12.54
2022-12-26T06:02:31.416Z,12.53
2022-12-26T06:03:31.399Z,12.54
2022-12-26T06:04:31.289Z,12.57
2022-12-26T06:05:31.271Z,12.57
2022-12-26T06:06:36.272Z,12.56
2022-12-26T06:07:31.241Z,12.57
2022-12-26T06:08:31.221Z,12.50
2022-12-26T06:09:31.239Z,12.50
2022-12-26T06:10:31.203Z,12.53
2022-12-26T06:11:31.237Z,12.54
2022-12-26T06:12:31.190Z,12.59
2022-12-26T06:13:31.173Z,12.56
2022-12-26T06:14:31.208Z,12.59
2022-12-26T06:15:31.173Z,12.53
2022-12-26T06:16:31.243Z,12.53
2022-12-26T06:17:36.145Z,12.53
2022-12-26T06:18:31.132Z,12.59
2022-12-26T06:19:31.099Z,12.53
2022-12-26T06:20:31.109Z,12.57
2022-12-26T06:21:31.084Z,12.54
2022-12-26T06:22:32.076Z,12.59
2022-12-26T06:23:31.070Z,12.54
2022-12-26T06:24:31.045Z,12.52
2022-12-26T06:25:31.034Z,12.60
2022-12-26T06:26:31.032Z,12.46
2022-12-26T06:27:31.008Z,12.54
2022-12-26T06:28:36.018Z,12.54
2022-12-26T06:29:30.983Z,12.46
2022-12-26T06:30:30.981Z,12.49
2022-12-26T06:31:31.017Z,12.53
2022-12-26T06:32:31.944Z,12.47
2022-12-26T06:33:30.938Z,12.47
2022-12-26T06:34:30.926Z,12.52
2022-12-26T06:35:30.914Z,12.49
2022-12-26T06:36:30.965Z,12.45
2022-12-26T06:37:30.890Z,12.46
2022-12-26T06:38:30.894Z,12.46
2022-12-26T06:39:35.888Z,12.42
2022-12-26T06:40:30.861Z,12.52
2022-12-26T06:41:30.855Z,12.42
2022-12-26T06:42:30.833Z,12.39
2022-12-26T06:43:30.826Z,12.47
2022-12-26T06:44:30.823Z,12.46
2022-12-26T06:45:30.807Z,12.41
2022-12-26T06:46:30.921Z,12.45
2022-12-26T06:47:30.781Z,12.41
2022-12-26T06:48:30.786Z,12.42
2022-12-26T06:49:33.144Z,12.49
2022-12-26T06:50:35.768Z,12.39
2022-12-26T06:51:30.742Z,12.47
2022-12-26T06:52:30.747Z,12.49
2022-12-26T06:53:30.708Z,12.42
2022-12-26T06:54:30.699Z,12.35
2022-12-26T06:55:30.692Z,12.34
2022-12-26T06:56:30.720Z,12.38
2022-12-26T06:57:30.677Z,12.28
2022-12-26T06:58:30.652Z,12.29
2022-12-26T06:59:30.649Z,12.24
2022-12-26T07:00:30.813Z,12.27
2022-12-26T07:01:35.872Z,12.23
2022-12-26T07:02:30.854Z,12.27
2022-12-26T07:03:30.596Z,12.20
2022-12-26T07:04:30.584Z,12.05
2022-12-26T07:05:30.582Z,12.14
2022-12-26T07:06:30.588Z,11.99
2022-12-26T07:07:30.588Z,12.01
2022-12-26T07:08:30.562Z,12.02
2022-12-26T07:09:33.913Z,12.02
2022-12-26T07:10:30.585Z,11.99
2022-12-26T07:11:30.514Z,12.01
2022-12-26T07:12:35.580Z,12.04
2022-12-26T07:13:30.520Z,11.88
2022-12-26T07:14:30.490Z,11.94
2022-12-26T07:15:30.475Z,11.91
2022-12-26T07:16:30.588Z,11.95
2022-12-26T07:17:30.450Z,11.91
2022-12-26T07:18:30.465Z,11.95
2022-12-26T07:19:30.413Z,11.94
2022-12-26T07:20:30.528Z,11.91
2022-12-26T07:21:34.807Z,11.94
2022-12-26T07:22:31.443Z,11.91
2022-12-26T07:23:35.457Z,11.88
2022-12-26T07:24:30.390Z,11.90
2022-12-26T07:25:30.348Z,11.90
2022-12-26T07:26:30.334Z,11.95
2022-12-26T07:27:30.329Z,11.85
2022-12-26T07:28:30.327Z,11.90
2022-12-26T07:29:30.300Z,11.95
2022-12-26T07:30:30.289Z,11.85
2022-12-26T07:31:30.412Z,11.90
2022-12-26T07:32:30.329Z,11.85
2022-12-26T07:33:30.305Z,11.95
2022-12-26T07:34:35.269Z,11.95
2022-12-26T07:35:30.236Z,11.86
2022-12-26T07:36:30.236Z,11.88
2022-12-26T07:37:30.213Z,12.02
2022-12-26T07:38:30.266Z,11.98
2022-12-26T07:39:30.205Z,11.98
2022-12-26T07:40:30.192Z,11.91
2022-12-26T07:41:30.174Z,12.05
2022-12-26T07:42:30.167Z,11.95
2022-12-26T07:43:30.158Z,11.98
2022-12-26T07:44:30.153Z,11.95
2022-12-26T07:45:38.066Z,11.95
2022-12-26T07:46:31.207Z,11.96
2022-12-26T07:47:30.126Z,11.91
2022-12-26T07:48:30.108Z,12.01
2022-12-26T07:49:30.091Z,11.96
2022-12-26T07:50:30.102Z,11.99
2022-12-26T07:51:30.092Z,12.07
2022-12-26T07:52:30.093Z,11.96
2022-12-26T07:53:30.057Z,11.91
2022-12-26T07:54:30.023Z,11.98
2022-12-26T07:55:30.094Z,12.02
2022-12-26T07:56:35.017Z,12.07
2022-12-26T07:57:48.088Z,12.02
2022-12-26T07:58:30.988Z,11.91
2022-12-26T07:59:29.969Z,11.88
2022-12-26T08:00:30.958Z,11.90
2022-12-26T08:01:30.777Z,12.04
2022-12-26T08:02:30.174Z,11.98
2022-12-26T08:03:30.006Z,11.91
2022-12-26T08:04:29.937Z,11.99
2022-12-26T08:05:29.896Z,11.86
2022-12-26T08:06:29.884Z,12.01
2022-12-26T08:07:34.909Z,11.99
2022-12-26T08:08:29.871Z,12.01
2022-12-26T08:09:29.845Z,11.99
2022-12-26T08:10:29.843Z,11.91
2022-12-26T08:11:30.837Z,11.96
2022-12-26T08:12:29.825Z,11.96
2022-12-26T08:13:29.811Z,11.96
2022-12-26T08:14:29.806Z,11.98
2022-12-26T08:15:29.779Z,11.90
2022-12-26T08:16:29.808Z,11.82
2022-12-26T08:17:29.756Z,11.90
2022-12-26T08:18:34.785Z,11.83
2022-12-26T08:19:29.817Z,11.82
2022-12-26T08:20:29.736Z,11.85
2022-12-26T08:21:29.723Z,11.86
2022-12-26T08:22:29.791Z,11.90
2022-12-26T08:23:29.700Z,11.80
2022-12-26T08:24:32.448Z,11.78
2022-12-26T08:25:31.320Z,11.78
2022-12-26T08:26:29.700Z,11.75
2022-12-26T08:27:29.819Z,11.72
2022-12-26T08:28:30.016Z,11.65
2022-12-26T08:29:34.673Z,11.67
2022-12-26T08:30:29.638Z,11.72
2022-12-26T08:31:29.671Z,11.72
2022-12-26T08:32:30.297Z,11.65
2022-12-26T08:33:29.581Z,11.65
2022-12-26T08:34:29.595Z,11.67
2022-12-26T08:35:29.559Z,11.60
2022-12-26T08:36:29.556Z,11.60
2022-12-26T08:37:29.544Z,11.58
2022-12-26T08:38:31.804Z,11.55
2022-12-26T08:39:29.530Z,11.65
2022-12-26T08:40:43.542Z,11.62
2022-12-26T08:41:30.484Z,11.62
2022-12-26T08:42:29.467Z,11.58
2022-12-26T08:43:45.391Z,11.67
2022-12-26T08:44:30.464Z,11.58
2022-12-26T08:45:29.444Z,11.61
2022-12-26T08:46:29.430Z,11.61
2022-12-26T08:47:29.426Z,11.47
2022-12-26T08:48:29.406Z,11.58
2022-12-26T08:49:29.407Z,11.52
2022-12-26T08:50:30.396Z,11.60
2022-12-26T08:51:34.481Z,11.54
2022-12-26T08:52:29.360Z,11.57
2022-12-26T08:53:29.361Z,11.62
2022-12-26T08:54:29.337Z,11.55
2022-12-26T08:55:29.336Z,11.57
2022-12-26T08:56:29.312Z,11.54
2022-12-26T08:57:29.303Z,11.65
2022-12-26T08:58:29.358Z,11.65
2022-12-26T08:59:29.314Z,11.62
2022-12-26T09:00:29.287Z,11.69
2022-12-26T09:01:29.396Z,11.69
2022-12-26T09:02:34.430Z,11.67
2022-12-26T09:03:29.376Z,11.69
2022-12-26T09:04:29.230Z,11.69
2022-12-26T09:05:29.231Z,11.78
2022-12-26T09:06:29.210Z,11.70
2022-12-26T09:07:29.188Z,11.70
2022-12-26T09:08:29.186Z,11.72
2022-12-26T09:09:29.169Z,11.73
2022-12-26T09:10:29.165Z,11.61
2022-12-26T09:11:29.143Z,11.70
2022-12-26T09:12:29.129Z,11.61
2022-12-26T09:13:34.173Z,11.67
2022-12-26T09:14:29.128Z,11.55
2022-12-26T09:15:29.133Z,11.55
2022-12-26T09:16:34.068Z,11.58
2022-12-26T09:17:30.173Z,11.61
2022-12-26T09:18:29.067Z,11.62
2022-12-26T09:19:29.056Z,11.69
2022-12-26T09:20:29.120Z,11.55
2022-12-26T09:21:29.032Z,11.61
2022-12-26T09:22:33.524Z,11.57
2022-12-26T09:23:30.008Z,11.55
2022-12-26T09:24:34.015Z,11.61
2022-12-26T09:25:29.013Z,11.61
2022-12-26T09:26:28.997Z,11.61
2022-12-26T09:27:28.959Z,11.58
2022-12-26T09:28:28.949Z,11.69
2022-12-26T09:29:28.935Z,11.60
2022-12-26T09:30:28.924Z,11.70
2022-12-26T09:31:28.949Z,11.61
2022-12-26T09:32:28.905Z,11.57
2022-12-26T09:33:28.899Z,11.58
2022-12-26T09:34:28.885Z,11.55
2022-12-26T09:35:33.897Z,11.65
2022-12-26T09:36:28.882Z,11.65
2022-12-26T09:37:28.858Z,11.64
2022-12-26T09:38:28.836Z,11.61
2022-12-26T09:39:28.825Z,11.61
2022-12-26T09:40:28.814Z,11.65
2022-12-26T09:41:28.830Z,11.61
2022-12-26T09:42:28.809Z,11.61
2022-12-26T09:43:28.785Z,11.61
2022-12-26T09:44:28.765Z,11.65
2022-12-26T09:45:28.755Z,11.60
2022-12-26T09:46:33.919Z,11.64
2022-12-26T09:47:28.798Z,11.67
2022-12-26T09:48:28.727Z,11.64
2022-12-26T09:49:28.717Z,11.62
2022-12-26T09:50:28.699Z,11.67
2022-12-26T09:51:28.711Z,11.64
2022-12-26T09:52:28.688Z,11.67
2022-12-26T09:53:28.679Z,11.73
2022-12-26T09:54:28.652Z,11.69
2022-12-26T09:55:28.645Z,11.69
2022-12-26T09:57:34.658Z,11.65
2022-12-26T09:58:28.609Z,11.69
2022-12-26T09:59:28.597Z,11.61
2022-12-26T10:00:28.584Z,11.73
2022-12-26T10:01:28.792Z,11.65
2022-12-26T10:02:28.704Z,11.75
2022-12-26T10:03:28.556Z,11.79
2022-12-26T10:04:30.014Z,11.75
2022-12-26T10:05:28.555Z,11.76
2022-12-26T10:06:28.539Z,11.73
2022-12-26T10:07:28.563Z,11.75
2022-12-26T10:08:33.560Z,11.72
2022-12-26T10:09:28.492Z,11.73
2022-12-26T10:10:28.472Z,11.76
2022-12-26T10:11:28.463Z,11.76
2022-12-26T10:12:28.480Z,11.78
2022-12-26T10:13:28.438Z,11.78
2022-12-26T10:14:28.431Z,11.72
2022-12-26T10:15:28.432Z,11.78
2022-12-26T10:16:28.407Z,11.78
2022-12-26T10:17:28.441Z,11.78
2022-12-26T10:18:28.402Z,11.79
2022-12-26T10:19:33.397Z,11.90
2022-12-26T10:20:28.373Z,11.78
2022-12-26T10:21:28.429Z,11.82
2022-12-26T10:22:28.349Z,11.85
2022-12-26T10:23:28.338Z,11.86
2022-12-26T10:24:28.318Z,11.90
2022-12-26T10:25:33.737Z,11.90
2022-12-26T10:26:29.290Z,11.99
2022-12-26T10:27:28.335Z,11.99
2022-12-26T10:28:28.275Z,11.91
2022-12-26T10:29:28.269Z,11.94
2022-12-26T10:30:33.270Z,11.90
2022-12-26T10:31:28.361Z,11.91
2022-12-26T10:32:28.459Z,12.02
2022-12-26T10:33:28.228Z,12.01
2022-12-26T10:34:28.263Z,12.05
2022-12-26T10:35:28.216Z,12.01
2022-12-26T10:36:28.175Z,12.02
2022-12-26T10:37:28.176Z,12.04
2022-12-26T10:38:28.224Z,12.01
2022-12-26T10:39:28.158Z,12.02
2022-12-26T10:40:28.142Z,11.98
2022-12-26T10:41:33.168Z,11.95
2022-12-26T10:42:28.108Z,12.09
2022-12-26T10:43:28.115Z,12.01
2022-12-26T10:44:28.279Z,12.13
2022-12-26T10:45:28.074Z,12.10
2022-12-26T10:46:28.098Z,12.10
2022-12-26T10:47:28.152Z,12.10
2022-12-26T10:48:28.051Z,12.13
2022-12-26T10:49:28.058Z,12.17
2022-12-26T10:50:28.191Z,12.12
2022-12-26T10:51:28.035Z,12.27
2022-12-26T10:52:33.018Z,12.24
2022-12-26T10:53:28.025Z,12.28
2022-12-26T10:54:27.973Z,12.23
2022-12-26T10:55:31.576Z,12.27
2022-12-26T10:56:27.947Z,12.14
2022-12-26T10:57:27.943Z,12.13
2022-12-26T10:58:27.938Z,12.13
2022-12-26T10:59:27.985Z,12.14
2022-12-26T11:00:27.906Z,12.13
2022-12-26T11:01:28.031Z,12.12
2022-12-26T11:02:28.129Z,12.16
2022-12-26T11:03:32.958Z,12.07
2022-12-26T11:06:06.891Z,12.21
2022-12-26T11:06:28.882Z,12.23
2022-12-26T11:07:27.828Z,12.24
2022-12-26T11:08:27.810Z,12.24
2022-12-26T11:09:27.868Z,12.28
2022-12-26T11:10:27.798Z,12.23
2022-12-26T11:11:27.777Z,12.19
2022-12-26T11:12:27.807Z,12.24
2022-12-26T11:13:27.758Z,12.34
2022-12-26T11:14:33.967Z,12.38
2022-12-26T11:15:27.739Z,12.37
2022-12-26T11:16:27.926Z,12.50
2022-12-26T11:17:27.718Z,12.45
2022-12-26T11:18:27.713Z,12.47
2022-12-26T11:19:27.696Z,12.45
2022-12-26T11:20:28.716Z,12.60
2022-12-26T11:21:27.665Z,12.49
2022-12-26T11:22:27.682Z,12.52
2022-12-26T11:23:27.679Z,12.57
2022-12-26T11:24:27.673Z,12.67
2022-12-26T11:25:32.641Z,12.70
2022-12-26T11:26:27.615Z,12.67
2022-12-26T11:27:27.594Z,12.70
2022-12-26T11:28:27.588Z,12.75
2022-12-26T11:29:27.585Z,12.75
2022-12-26T11:30:27.566Z,12.74
2022-12-26T11:31:27.585Z,12.71
2022-12-26T11:32:27.561Z,12.75
2022-12-26T11:33:27.527Z,12.71
2022-12-26T11:34:27.528Z,12.74
2022-12-26T11:35:27.505Z,12.62
2022-12-26T11:36:32.511Z,12.67
2022-12-26T11:37:27.501Z,12.65
2022-12-26T11:38:27.503Z,12.67
2022-12-26T11:39:27.484Z,12.65
2022-12-26T11:40:27.449Z,12.74
2022-12-26T11:41:27.451Z,12.68
2022-12-26T11:42:27.441Z,12.74
2022-12-26T11:43:27.439Z,12.75
2022-12-26T11:44:27.419Z,12.75
2022-12-26T11:45:27.399Z,12.78
2022-12-26T11:46:27.412Z,12.71
2022-12-26T11:47:32.438Z,12.92
2022-12-26T11:48:27.357Z,12.85
2022-12-26T11:49:27.377Z,12.90
2022-12-26T11:50:27.332Z,12.92
2022-12-26T11:51:27.324Z,12.95
2022-12-26T11:52:27.312Z,13.03
2022-12-26T11:53:27.303Z,13.05
2022-12-26T11:54:27.324Z,13.23
2022-12-26T11:55:27.288Z,13.25
2022-12-26T11:56:27.264Z,13.38
2022-12-26T11:57:27.255Z,13.32
2022-12-26T11:58:33.262Z,13.44
2022-12-26T11:59:27.255Z,13.36
2022-12-26T12:00:27.230Z,13.45
2022-12-26T12:01:27.241Z,13.49
2022-12-26T12:02:27.276Z,13.54
2022-12-26T12:03:27.249Z,13.51
2022-12-26T12:04:27.175Z,13.49
2022-12-26T12:05:27.181Z,13.54
2022-12-26T12:06:27.164Z,13.46
2022-12-26T12:07:27.141Z,13.54
2022-12-26T12:08:27.128Z,13.42
2022-12-26T12:09:32.159Z,13.44
2022-12-26T12:10:27.177Z,13.39
2022-12-26T12:11:27.112Z,13.45
2022-12-26T12:12:28.085Z,13.45
2022-12-26T12:13:27.095Z,13.55
2022-12-26T12:14:27.063Z,13.51
2022-12-26T12:15:27.070Z,13.46
2022-12-26T12:16:27.067Z,13.59
2022-12-26T12:17:27.045Z,13.63
2022-12-26T12:18:27.016Z,13.66
2022-12-26T12:19:27.018Z,13.60
2022-12-26T12:20:32.033Z,13.63
2022-12-26T12:21:26.985Z,13.69
2022-12-26T12:22:26.969Z,13.64
2022-12-26T12:23:26.964Z,13.59
2022-12-26T12:24:26.949Z,13.73
2022-12-26T12:25:26.966Z,13.62
2022-12-26T12:26:26.925Z,13.66
2022-12-26T12:27:26.913Z,13.67
2022-12-26T12:28:26.914Z,13.60
2022-12-26T12:29:26.897Z,13.57
2022-12-26T12:30:26.901Z,13.55
2022-12-26T12:31:31.968Z,13.54
2022-12-26T12:32:26.884Z,13.51
2022-12-26T12:33:26.850Z,13.54
2022-12-26T12:34:26.867Z,13.48
2022-12-26T12:35:26.830Z,13.49
2022-12-26T12:36:26.832Z,13.51
2022-12-26T12:37:26.803Z,13.48
2022-12-26T12:38:26.803Z,13.51
2022-12-26T12:39:26.781Z,13.46
2022-12-26T12:40:26.774Z,13.49
2022-12-26T12:41:27.211Z,13.54
2022-12-26T12:42:31.773Z,13.51
2022-12-26T12:43:26.752Z,13.55
2022-12-26T12:44:26.728Z,13.48
2022-12-26T12:45:26.785Z,13.48
2022-12-26T12:46:26.723Z,13.52
2022-12-26T12:47:26.712Z,13.41
2022-12-26T12:48:26.681Z,13.44
2022-12-26T12:49:26.685Z,13.32
2022-12-26T12:50:26.668Z,13.39
2022-12-26T12:51:26.680Z,13.33
2022-12-26T12:52:26.637Z,13.41
2022-12-26T12:53:31.646Z,13.32
2022-12-26T12:54:26.614Z,13.26
2022-12-26T12:55:26.609Z,13.29
2022-12-26T12:56:26.686Z,13.36
2022-12-26T12:57:26.595Z,13.36
2022-12-26T12:58:26.566Z,13.38
2022-12-26T12:59:26.554Z,13.26
2022-12-26T13:00:26.548Z,13.38
2022-12-26T13:01:26.653Z,13.29
2022-12-26T13:02:26.809Z,13.30
2022-12-26T13:03:26.526Z,13.30
2022-12-26T13:04:31.519Z,13.30
2022-12-26T13:05:26.495Z,13.23
2022-12-26T13:06:26.551Z,13.12
2022-12-26T13:07:26.469Z,13.30
2022-12-26T13:08:26.459Z,13.32
2022-12-26T13:09:26.462Z,13.30
2022-12-26T13:10:26.434Z,13.15
2022-12-26T13:11:26.474Z,13.20
2022-12-26T13:12:26.445Z,13.17
2022-12-26T13:13:26.420Z,13.19
2022-12-26T13:14:26.383Z,13.32
2022-12-26T13:15:31.399Z,13.29
2022-12-26T13:16:26.564Z,13.30
2022-12-26T13:17:26.352Z,13.29
2022-12-26T13:18:26.367Z,13.28
2022-12-26T13:19:26.336Z,13.32
2022-12-26T13:20:26.320Z,13.30
2022-12-26T13:21:26.315Z,13.30
2022-12-26T13:22:26.299Z,13.26
2022-12-26T13:23:26.285Z,13.29
2022-12-26T13:24:26.319Z,13.36
2022-12-26T13:25:26.260Z,13.39
2022-12-26T13:26:31.286Z,13.36
2022-12-26T13:27:26.241Z,13.32
2022-12-26T13:28:26.237Z,13.30
2022-12-26T13:29:26.233Z,13.30
2022-12-26T13:30:26.208Z,13.25
2022-12-26T13:31:26.237Z,13.38
2022-12-26T13:32:26.192Z,13.33
2022-12-26T13:33:26.175Z,13.38
2022-12-26T13:34:26.185Z,13.22
2022-12-26T13:35:26.153Z,13.30
2022-12-26T13:36:26.139Z,13.14
2022-12-26T13:37:31.158Z,13.29
2022-12-26T13:38:26.119Z,13.30
2022-12-26T13:39:26.111Z,13.29
2022-12-26T13:40:26.099Z,13.22
2022-12-26T13:41:26.088Z,13.25
2022-12-26T13:42:26.125Z,13.14
2022-12-26T13:43:26.058Z,13.15
2022-12-26T13:44:26.054Z,13.11
2022-12-26T13:45:26.061Z,13.17
2022-12-26T13:46:26.145Z,13.14
2022-12-26T13:47:26.056Z,13.14
2022-12-26T13:48:31.030Z,13.11
2022-12-26T13:49:25.998Z,13.10
2022-12-26T13:50:25.993Z,13.10
2022-12-26T13:51:26.049Z,13.10
2022-12-26T13:52:25.975Z,13.14
2022-12-26T13:53:25.988Z,13.08
2022-12-26T13:54:25.948Z,13.07
2022-12-26T13:55:25.923Z,13.07
2022-12-26T13:56:25.915Z,13.05
2022-12-26T13:57:25.928Z,13.01
2022-12-26T13:58:25.910Z,13.00
2022-12-26T13:59:30.905Z,12.97
2022-12-26T14:00:25.946Z,13.07
2022-12-26T14:01:26.023Z,13.01
2022-12-26T14:02:49.817Z,12.97
2022-12-26T14:03:27.107Z,12.92
2022-12-26T14:04:25.838Z,12.95
2022-12-26T14:05:25.840Z,12.90
2022-12-26T14:06:25.804Z,12.92
2022-12-26T14:07:25.827Z,12.87
2022-12-26T14:08:25.784Z,12.92
2022-12-26T14:09:25.774Z,12.79
2022-12-26T14:10:30.796Z,12.86
2022-12-26T14:11:25.763Z,12.87
2022-12-26T14:12:25.826Z,12.79
2022-12-26T14:13:25.749Z,12.79
2022-12-26T14:14:25.725Z,12.75
2022-12-26T14:15:25.709Z,12.74
2022-12-26T14:16:25.781Z,12.70
2022-12-26T14:17:25.711Z,12.70
2022-12-26T14:18:25.686Z,12.68
2022-12-26T14:19:25.671Z,12.64
2022-12-26T14:20:25.668Z,12.64
2022-12-26T14:21:30.696Z,12.62
2022-12-26T14:22:25.624Z,12.57
2022-12-26T14:23:25.635Z,12.57
2022-12-26T14:24:25.668Z,12.53
2022-12-26T14:25:25.599Z,12.54
2022-12-26T14:26:25.585Z,12.52
2022-12-26T14:27:25.569Z,12.56
2022-12-26T14:28:25.568Z,12.53
2022-12-26T14:29:25.558Z,12.53
2022-12-26T14:30:25.672Z,12.53
2022-12-26T14:31:25.519Z,12.57
2022-12-26T14:32:30.591Z,12.49
2022-12-26T14:33:25.572Z,12.49
2022-12-26T14:34:25.541Z,12.59
2022-12-26T14:35:25.486Z,12.47
2022-12-26T14:36:25.467Z,12.49
2022-12-26T14:37:25.465Z,12.49
2022-12-26T14:38:25.458Z,12.50
2022-12-26T14:39:25.434Z,12.53
2022-12-26T14:40:25.445Z,12.46
2022-12-26T14:41:25.411Z,12.47
2022-12-26T14:42:25.412Z,12.42
2022-12-26T14:43:30.434Z,12.47
2022-12-26T14:44:25.378Z,12.47
2022-12-26T14:45:25.363Z,12.50
2022-12-26T14:46:25.398Z,12.45
2022-12-26T14:47:25.340Z,12.45
2022-12-26T14:48:25.347Z,12.45
2022-12-26T14:49:28.133Z,12.41
2022-12-26T14:50:26.314Z,12.42
2022-12-26T14:51:25.299Z,12.46
2022-12-26T14:52:25.299Z,12.42
2022-12-26T14:53:25.291Z,12.46
2022-12-26T14:54:30.323Z,12.39
2022-12-26T14:55:25.254Z,12.42
2022-12-26T14:56:26.241Z,12.35
2022-12-26T14:57:25.248Z,12.42
2022-12-26T14:58:25.243Z,12.35
2022-12-26T14:59:25.215Z,12.38
2022-12-26T15:00:25.213Z,12.35
2022-12-26T15:01:25.323Z,12.34
2022-12-26T15:02:25.356Z,12.34
2022-12-26T15:03:25.234Z,12.29
2022-12-26T15:04:25.192Z,12.39
2022-12-26T15:05:31.154Z,12.35
2022-12-26T15:06:25.136Z,12.34
2022-12-26T15:07:25.123Z,12.39
2022-12-26T15:08:25.101Z,12.28
2022-12-26T15:09:25.110Z,12.31
2022-12-26T15:10:25.091Z,12.24
2022-12-26T15:11:25.082Z,12.23
2022-12-26T15:12:25.055Z,12.37
2022-12-26T15:13:25.092Z,12.29
2022-12-26T15:14:25.069Z,12.28
2022-12-26T15:15:25.034Z,12.24
2022-12-26T15:16:30.040Z,12.29
2022-12-26T15:17:25.007Z,12.20
2022-12-26T15:18:24.992Z,12.27
2022-12-26T15:19:26.005Z,12.28
2022-12-26T15:20:24.994Z,12.27
2022-12-26T15:21:24.955Z,12.23
2022-12-26T15:22:24.942Z,12.14
2022-12-26T15:23:24.929Z,12.10
2022-12-26T15:24:45.424Z,12.12
2022-12-26T15:25:25.917Z,12.10
2022-12-26T15:26:24.898Z,12.14
2022-12-26T15:27:29.923Z,12.13
2022-12-26T15:28:24.880Z,12.13
2022-12-26T15:29:24.883Z,12.13
2022-12-26T15:30:24.866Z,12.13
2022-12-26T15:31:24.932Z,12.14
2022-12-26T15:32:24.842Z,12.10
2022-12-26T15:33:24.819Z,12.16
2022-12-26T15:34:24.808Z,12.16
2022-12-26T15:35:24.807Z,12.17
2022-12-26T15:36:24.827Z,12.16
2022-12-26T15:37:24.774Z,12.16
2022-12-26T15:38:30.784Z,12.14
2022-12-26T15:39:24.755Z,12.14
2022-12-26T15:40:24.788Z,12.14
2022-12-26T15:41:24.727Z,12.17
2022-12-26T15:42:24.727Z,12.10
2022-12-26T15:43:24.760Z,12.13
2022-12-26T15:44:24.691Z,11.96
2022-12-26T15:45:28.317Z,11.96
2022-12-26T15:46:24.726Z,11.98
2022-12-26T15:47:24.661Z,11.96
2022-12-26T15:48:24.645Z,11.96
2022-12-26T15:49:29.666Z,12.09
2022-12-26T15:50:24.628Z,11.99
2022-12-26T15:51:24.657Z,12.05
2022-12-26T15:52:24.625Z,12.14
2022-12-26T15:53:24.600Z,12.17
2022-12-26T15:54:24.579Z,12.21
2022-12-26T15:55:24.581Z,12.23
2022-12-26T15:56:24.601Z,12.24
2022-12-26T15:57:24.578Z,12.21
2022-12-26T15:58:24.615Z,12.28
2022-12-26T15:59:24.527Z,12.23
2022-12-26T16:00:29.539Z,12.34
2022-12-26T16:01:24.654Z,12.32
2022-12-26T16:02:24.689Z,12.32
2022-12-26T16:03:24.524Z,12.41
2022-12-26T16:04:24.475Z,12.37
2022-12-26T16:05:24.451Z,12.35
2022-12-26T16:06:25.202Z,12.39
2022-12-26T16:07:24.432Z,12.37
2022-12-26T16:08:24.442Z,12.31
2022-12-26T16:09:24.408Z,12.31
2022-12-26T16:10:24.408Z,12.31
2022-12-26T16:11:29.432Z,12.32
2022-12-26T16:12:24.379Z,12.35
2022-12-26T16:13:24.357Z,12.32
2022-12-26T16:14:24.356Z,12.32
2022-12-26T16:15:24.370Z,12.32
2022-12-26T16:16:24.398Z,12.37
2022-12-26T16:17:24.326Z,12.27
2022-12-26T16:18:24.307Z,12.24
2022-12-26T16:19:24.294Z,12.14
2022-12-26T16:20:24.282Z,12.09
2022-12-26T16:21:24.276Z,11.96
2022-12-26T16:22:29.314Z,12.04
2022-12-26T16:23:24.248Z,11.85
2022-12-26T16:24:24.262Z,11.83
2022-12-26T16:25:24.248Z,11.72
2022-12-26T16:26:24.215Z,11.69
2022-12-26T16:27:24.230Z,11.67
2022-12-26T16:28:24.194Z,11.64
2022-12-26T16:29:24.185Z,11.54
2022-12-26T16:30:24.168Z,11.40
2022-12-26T16:31:24.272Z,11.35
2022-12-26T16:32:24.172Z,11.25
2022-12-26T16:33:29.162Z,11.18
2022-12-26T16:34:24.123Z,11.10
2022-12-26T16:35:24.113Z,11.17
2022-12-26T16:36:24.097Z,11.10
2022-12-26T16:37:24.095Z,11.02
2022-12-26T16:38:24.079Z,11.00
2022-12-26T16:39:24.077Z,10.88
2022-12-26T16:40:24.105Z,10.89
2022-12-26T16:41:24.073Z,10.85
2022-12-26T16:42:24.061Z,10.73
2022-12-26T16:43:24.018Z,10.73
2022-12-26T16:44:30.713Z,10.68
2022-12-26T16:45:24.013Z,10.68
2022-12-26T16:46:24.061Z,10.59
2022-12-26T16:47:24.052Z,10.51
2022-12-26T16:48:23.978Z,10.52
2022-12-26T16:49:23.954Z,10.53
2022-12-26T16:50:23.940Z,10.52
2022-12-26T16:51:23.928Z,10.45
2022-12-26T16:52:23.922Z,10.40
2022-12-26T16:53:23.930Z,10.42
2022-12-26T16:54:23.897Z,10.34
2022-12-26T16:55:28.921Z,10.38
2022-12-26T16:56:23.878Z,10.33
2022-12-26T16:57:23.868Z,10.26
2022-12-26T16:58:23.857Z,10.32
2022-12-26T16:59:23.839Z,10.25
2022-12-26T17:00:23.828Z,10.25
2022-12-26T17:01:24.001Z,10.23
2022-12-26T17:02:24.047Z,10.25
2022-12-26T17:03:23.834Z,10.25
2022-12-26T17:04:23.797Z,10.15
2022-12-26T17:05:23.770Z,10.26
2022-12-26T17:06:28.786Z,10.25
2022-12-26T17:07:23.746Z,10.22
2022-12-26T17:08:23.768Z,10.14
2022-12-26T17:09:23.726Z,10.12
2022-12-26T17:10:23.715Z,10.18
2022-12-26T17:11:23.719Z,10.11
2022-12-26T17:12:23.704Z,10.18
2022-12-26T17:13:23.679Z,10.12
2022-12-26T17:14:23.678Z,10.17
2022-12-26T17:15:23.655Z,10.09
2022-12-26T17:16:23.695Z,10.11
2022-12-26T17:17:28.657Z,10.15
2022-12-26T17:18:23.627Z,10.09
2022-12-26T17:19:23.630Z,10.07
2022-12-26T17:20:23.606Z,10.02
2022-12-26T17:21:23.606Z,10.08
2022-12-26T17:22:23.597Z,10.05
2022-12-26T17:23:23.563Z,10.02
2022-12-26T17:24:23.584Z,10.02
2022-12-26T17:25:23.541Z,9.96
2022-12-26T17:26:23.546Z,10.07
2022-12-26T17:27:23.598Z,10.11
2022-12-26T17:28:28.547Z,10.04
2022-12-26T17:29:23.514Z,10.05
2022-12-26T17:30:23.484Z,10.15
2022-12-26T17:31:23.519Z,10.08
2022-12-26T17:32:23.459Z,10.15
2022-12-26T17:33:23.453Z,10.08
2022-12-26T17:34:23.444Z,10.12
2022-12-26T17:35:23.462Z,10.17
2022-12-26T17:37:17.340Z,10.17
2022-12-26T17:37:24.409Z,10.22
2022-12-26T17:38:23.454Z,10.15
2022-12-26T17:39:28.417Z,10.11
2022-12-26T17:40:23.436Z,10.15
2022-12-26T17:41:23.357Z,10.09
2022-12-26T17:42:23.391Z,10.18
2022-12-26T17:43:23.366Z,10.15
2022-12-26T17:44:23.320Z,10.11
2022-12-26T17:45:23.324Z,10.17
2022-12-26T17:46:23.396Z,10.09
2022-12-26T17:47:23.296Z,9.97
2022-12-26T17:48:23.287Z,9.93
2022-12-26T17:49:23.266Z,10.02
2022-12-26T17:50:28.299Z,9.90
2022-12-26T17:51:23.243Z,9.83
2022-12-26T17:52:23.238Z,9.89
2022-12-26T17:53:23.219Z,9.74
2022-12-26T17:54:23.226Z,9.74